createdAt,value
2018-09-03T00:01:06.871Z,8.67
2018-09-03T00:03:35.153Z,9.20
2018-09-03T00:06:03.412Z,8.93
2018-09-03T00:08:31.698Z,9.23
2018-09-03T00:10:59.955Z,8.83
2018-09-03T00:13:28.375Z,8.90
2018-09-03T00:15:56.637Z,8.10
2018-09-03T00:18:24.933Z,8.13
2018-09-03T00:20:53.200Z,8.23
2018-09-03T00:23:21.501Z,8.10
2018-09-03T00:25:49.773Z,8.87
2018-09-03T00:28:18.044Z,8.60
2018-09-03T00:30:46.305Z,8.90
2018-09-03T00:33:19.872Z,9.00
2018-09-03T00:35:53.256Z,8.53
2018-09-03T00:38:26.800Z,8.00
2018-09-03T00:41:00.349Z,7.70
2018-09-03T00:43:33.974Z,8.63
2018-09-03T00:46:07.413Z,9.63
2018-09-03T00:48:35.788Z,8.50
2018-09-03T00:51:04.146Z,8.07
2018-09-03T00:53:32.416Z,8.23
2018-09-03T00:56:00.681Z,8.30
2018-09-03T00:58:28.955Z,7.73
2018-09-03T01:00:57.209Z,7.57
2018-09-03T01:03:25.517Z,6.77
2018-09-03T01:05:53.787Z,8.50
2018-09-03T01:08:22.077Z,8.70
2018-09-03T01:10:50.371Z,8.23
2018-09-03T01:13:18.689Z,9.10
2018-09-03T01:15:46.949Z,7.33
2018-09-03T01:18:15.245Z,7.80
2018-09-03T01:20:43.521Z,6.83
2018-09-03T01:23:11.852Z,7.10
2018-09-03T01:25:40.121Z,7.27
2018-09-03T01:28:08.379Z,7.53
2018-09-03T01:30:36.651Z,7.43
2018-09-03T01:33:05.401Z,6.47
2018-09-03T01:35:33.676Z,6.27
2018-09-03T01:38:01.929Z,6.83
2018-09-03T01:40:30.204Z,7.57
2018-09-03T01:42:58.553Z,7.10
2018-09-03T01:45:26.844Z,7.80
2018-09-03T01:47:55.249Z,8.20
2018-09-03T01:50:23.601Z,8.10
2018-09-03T01:52:51.841Z,6.90
2018-09-03T01:55:20.089Z,6.53
2018-09-03T01:57:48.413Z,7.13
2018-09-03T02:00:16.658Z,7.80
2018-09-03T02:02:44.968Z,8.10
2018-09-03T02:05:13.217Z,6.80
2018-09-03T02:07:41.489Z,7.60
2018-09-03T02:10:09.733Z,6.70
2018-09-03T02:12:38.000Z,7.30
2018-09-03T02:15:06.568Z,7.17
2018-09-03T02:17:34.861Z,6.70
2018-09-03T02:20:03.133Z,7.63
2018-09-03T02:22:31.402Z,7.50
2018-09-03T02:24:59.646Z,6.03
2018-09-03T02:27:27.943Z,6.40
2018-09-03T02:29:56.825Z,6.27
2018-09-03T02:32:25.061Z,6.03
2018-09-03T02:34:53.338Z,7.07
2018-09-03T02:37:21.584Z,5.93
2018-09-03T02:39:49.872Z,7.33
2018-09-03T02:42:18.135Z,7.70
2018-09-03T02:44:46.475Z,6.73
2018-09-03T02:47:14.725Z,6.83
2018-09-03T02:49:43.046Z,6.37
2018-09-03T02:52:11.289Z,6.30
2018-09-03T02:54:39.609Z,5.90
2018-09-03T02:57:07.897Z,6.53
2018-09-03T02:59:36.201Z,6.50
2018-09-03T03:02:04.881Z,5.90
2018-09-03T03:04:33.158Z,5.70
2018-09-03T03:07:01.416Z,6.13
2018-09-03T03:09:29.685Z,5.93
2018-09-03T03:11:57.961Z,5.80
2018-09-03T03:14:26.259Z,5.73
2018-09-03T03:16:54.513Z,4.97
2018-09-03T03:19:22.794Z,5.00
2018-09-03T03:21:51.056Z,6.10
2018-09-03T03:24:20.465Z,6.57
2018-09-03T03:26:48.717Z,5.00
2018-09-03T03:29:16.974Z,5.20
2018-09-03T03:31:45.276Z,5.97
2018-09-03T03:34:13.521Z,4.87
2018-09-03T03:36:41.813Z,5.53
2018-09-03T03:39:10.233Z,4.70
2018-09-03T03:41:38.598Z,5.50
2018-09-03T03:44:07.345Z,5.63
2018-09-03T03:46:35.662Z,5.30
2018-09-03T03:49:03.925Z,4.90
2018-09-03T03:51:32.219Z,5.60
2018-09-03T03:54:00.461Z,5.50
2018-09-03T03:56:28.749Z,5.70
2018-09-03T03:58:57.045Z,6.83
2018-09-03T04:01:25.370Z,6.00
2018-09-03T04:03:54.705Z,5.83
2018-09-03T04:06:22.989Z,5.83
2018-09-03T04:08:51.283Z,6.30
2018-09-03T04:11:19.542Z,7.10
2018-09-03T04:13:47.817Z,5.70
2018-09-03T04:16:16.078Z,6.50
2018-09-03T04:18:44.370Z,6.40
2018-09-03T04:21:12.630Z,6.37
2018-09-03T04:23:40.924Z,6.43
2018-09-03T04:26:09.213Z,6.40
2018-09-03T04:28:37.520Z,7.37
2018-09-03T04:31:05.778Z,7.93
2018-09-03T04:33:34.064Z,6.53
2018-09-03T04:36:03.197Z,7.20
2018-09-03T04:38:31.702Z,6.03
2018-09-03T04:40:59.939Z,7.37
2018-09-03T04:43:28.238Z,6.70
2018-09-03T04:45:56.507Z,6.97
2018-09-03T04:48:24.839Z,7.00
2018-09-03T04:50:53.119Z,6.73
2018-09-03T04:53:22.433Z,8.47
2018-09-03T04:55:50.713Z,7.33
2018-09-03T04:58:20.429Z,6.87
2018-09-03T05:00:48.681Z,8.70
2018-09-03T05:03:17.065Z,8.27
2018-09-03T05:05:45.442Z,7.23
2018-09-03T05:08:13.693Z,6.97
2018-09-03T05:10:41.949Z,6.50
2018-09-03T05:13:10.228Z,7.20
2018-09-03T05:15:38.703Z,6.50
2018-09-03T05:18:07.049Z,6.40
2018-09-03T05:20:35.338Z,6.50
2018-09-03T05:23:03.657Z,6.60
2018-09-03T05:25:31.930Z,6.30
2018-09-03T05:28:00.239Z,6.13
2018-09-03T05:30:28.525Z,5.80
2018-09-03T05:32:57.041Z,5.67
2018-09-03T05:35:25.325Z,5.70
2018-09-03T05:37:54.025Z,5.83
2018-09-03T05:40:22.274Z,5.27
2018-09-03T05:42:50.541Z,4.83
2018-09-03T05:45:18.837Z,5.20
2018-09-03T05:47:47.097Z,5.73
2018-09-03T05:50:15.567Z,5.87
2018-09-03T05:52:43.773Z,5.70
2018-09-03T05:55:12.345Z,6.17
2018-09-03T05:57:40.605Z,6.00
2018-09-03T06:00:09.225Z,5.47
2018-09-03T06:02:37.479Z,6.13
2018-09-03T06:05:06.207Z,5.83
2018-09-03T06:07:34.465Z,6.17
2018-09-03T06:10:02.762Z,6.37
2018-09-03T06:12:31.033Z,6.17
2018-09-03T06:14:59.357Z,5.77
2018-09-03T06:18:56.789Z,5.73
2018-09-03T06:21:25.091Z,5.40
2018-09-03T06:23:53.541Z,6.83
2018-09-03T06:26:21.844Z,6.23
2018-09-03T06:28:50.233Z,6.13
2018-09-03T06:31:19.596Z,5.53
2018-09-03T06:33:47.849Z,6.23
2018-09-03T06:36:16.124Z,6.83
2018-09-03T06:38:44.566Z,5.30
2018-09-03T06:41:12.933Z,5.90
2018-09-03T06:43:41.201Z,6.50
2018-09-03T06:46:09.519Z,6.63
2018-09-03T06:48:37.762Z,6.73
2018-09-03T06:51:06.185Z,6.50
2018-09-03T06:53:34.519Z,6.07
2018-09-03T06:56:02.774Z,7.20
2018-09-03T06:58:31.097Z,6.03
2018-09-03T07:00:59.503Z,6.10
2018-09-03T07:03:27.805Z,6.30
2018-09-03T07:05:56.246Z,5.90
2018-09-03T07:08:24.657Z,7.33
2018-09-03T07:10:52.922Z,6.37
2018-09-03T07:13:22.416Z,6.00
2018-09-03T07:15:51.449Z,7.77
2018-09-03T07:18:19.764Z,7.07
2018-09-03T07:20:48.053Z,5.40
2018-09-03T07:23:16.320Z,5.90
2018-09-03T07:25:44.562Z,5.83
2018-09-03T07:28:12.912Z,5.67
2018-09-03T07:30:41.161Z,6.37
2018-09-03T07:33:09.429Z,6.00
2018-09-03T07:35:37.748Z,5.80
2018-09-03T07:38:06.153Z,6.37
2018-09-03T07:40:34.398Z,6.87
2018-09-03T07:43:02.676Z,6.63
2018-09-03T07:45:30.986Z,6.40
2018-09-03T07:48:00.322Z,5.67
2018-09-03T07:50:28.614Z,5.77
2018-09-03T07:52:56.854Z,5.57
2018-09-03T07:55:25.121Z,6.53
2018-09-03T07:57:53.362Z,6.50
2018-09-03T08:00:21.736Z,6.97
2018-09-03T08:02:49.995Z,6.07
2018-09-03T08:05:18.257Z,6.70
2018-09-03T08:07:46.493Z,6.10
2018-09-03T08:10:14.773Z,6.50
2018-09-03T08:12:43.097Z,6.27
2018-09-03T08:15:11.373Z,7.63
2018-09-03T08:17:39.608Z,6.40
2018-09-03T08:20:07.980Z,6.33
2018-09-03T08:22:36.196Z,6.93
2018-09-03T08:25:04.530Z,7.43
2018-09-03T08:27:32.769Z,7.20
2018-09-03T08:30:01.010Z,8.03
2018-09-03T08:32:29.281Z,7.23
2018-09-03T08:34:57.525Z,8.00
2018-09-03T08:37:25.810Z,8.53
2018-09-03T08:39:54.317Z,7.50
2018-09-03T08:42:22.615Z,7.90
2018-09-03T08:44:50.989Z,7.50
2018-09-03T08:47:19.213Z,7.53
2018-09-03T08:49:47.457Z,8.23
2018-09-03T08:52:15.741Z,7.30
2018-09-03T08:54:44.009Z,7.53
2018-09-03T08:57:12.374Z,7.67
2018-09-03T08:59:40.654Z,7.47
2018-09-03T09:02:09.121Z,8.13
2018-09-03T09:04:37.385Z,7.50
2018-09-03T09:07:05.701Z,8.00
2018-09-03T09:09:34.003Z,8.30
2018-09-03T09:12:02.282Z,7.53
2018-09-03T09:14:30.553Z,7.30
2018-09-03T09:16:58.869Z,7.67
2018-09-03T09:19:27.137Z,7.23
2018-09-03T09:21:55.415Z,7.30
2018-09-03T09:24:23.721Z,7.60
2018-09-03T09:26:51.946Z,7.60
2018-09-03T09:29:20.210Z,6.80
2018-09-03T09:31:48.581Z,6.90
2018-09-03T09:34:16.841Z,7.63
2018-09-03T09:36:45.108Z,7.20
2018-09-03T09:39:13.390Z,7.00
2018-09-03T09:41:41.644Z,7.60
2018-09-03T09:44:09.949Z,7.67
2018-09-03T09:46:38.213Z,8.50
2018-09-03T09:49:06.533Z,8.47
2018-09-03T09:51:34.773Z,7.60
2018-09-03T09:54:03.107Z,8.30
2018-09-03T09:56:31.395Z,7.40
2018-09-03T09:58:59.737Z,9.10
2018-09-03T10:01:33.157Z,7.80
2018-09-03T10:04:01.758Z,6.70
2018-09-03T10:06:30.028Z,7.10
2018-09-03T10:08:58.713Z,7.90
2018-09-03T10:11:27.483Z,8.33
2018-09-03T10:13:55.801Z,7.27
2018-09-03T10:16:24.132Z,7.70
2018-09-03T10:18:52.521Z,7.30
2018-09-03T10:21:20.793Z,7.43
2018-09-03T10:23:49.133Z,7.73
2018-09-03T10:26:17.460Z,7.50
2018-09-03T10:28:45.846Z,6.40
2018-09-03T10:31:14.131Z,8.50
2018-09-03T10:33:42.383Z,8.60
2018-09-03T10:36:10.733Z,7.73
2018-09-03T10:38:39.002Z,8.17
2018-09-03T10:41:07.689Z,8.37
2018-09-03T10:43:36.022Z,6.90
2018-09-03T10:46:04.317Z,6.97
2018-09-03T10:48:32.600Z,5.87
2018-09-03T10:51:00.886Z,6.47
2018-09-03T10:53:29.150Z,6.93
2018-09-03T10:55:57.433Z,7.10
2018-09-03T10:58:26.738Z,7.30
2018-09-03T11:00:55.001Z,6.53
2018-09-03T11:03:23.277Z,6.23
2018-09-03T11:05:51.529Z,7.87
2018-09-03T11:08:19.809Z,7.13
2018-09-03T11:10:48.124Z,8.43
2018-09-03T11:13:16.399Z,8.07
2018-09-03T11:15:44.660Z,6.70
2018-09-03T11:18:12.945Z,7.40
2018-09-03T11:20:41.201Z,8.03
2018-09-03T11:23:09.469Z,7.60
2018-09-03T11:25:37.768Z,7.80
2018-09-03T11:28:06.085Z,7.60
2018-09-03T11:30:34.370Z,7.57
2018-09-03T11:33:03.589Z,6.50
2018-09-03T11:35:31.862Z,7.23
2018-09-03T11:38:00.161Z,7.93
2018-09-03T11:40:28.458Z,7.13
2018-09-03T11:42:56.780Z,5.93
2018-09-03T11:45:25.161Z,6.50
2018-09-03T11:47:53.469Z,6.43
2018-09-03T11:50:21.906Z,6.20
2018-09-03T11:52:50.151Z,5.90
2018-09-03T11:55:19.489Z,6.03
2018-09-03T11:57:47.822Z,6.80
2018-09-03T12:00:23.382Z,7.10
2018-09-03T12:02:51.646Z,5.90
2018-09-03T12:05:19.964Z,6.27
2018-09-03T12:07:48.250Z,7.07
2018-09-03T12:10:16.597Z,6.10
2018-09-03T12:12:44.849Z,5.73
2018-09-03T12:16:20.386Z,6.20
2018-09-03T12:18:48.656Z,5.83
2018-09-03T12:21:17.213Z,6.27
2018-09-03T12:23:45.579Z,5.97
2018-09-03T12:26:13.884Z,5.93
2018-09-03T12:28:42.138Z,6.03
2018-09-03T12:31:10.533Z,6.20
2018-09-03T12:33:38.745Z,6.40
2018-09-03T12:36:07.200Z,6.30
2018-09-03T12:38:35.650Z,6.57
2018-09-03T12:41:04.491Z,5.57
2018-09-03T12:43:32.763Z,6.17
2018-09-03T12:46:04.548Z,6.53
2018-09-03T12:48:33.405Z,6.00
2018-09-03T12:51:02.599Z,6.20
2018-09-03T12:53:31.470Z,6.50
2018-09-03T12:55:59.969Z,6.23
2018-09-03T12:58:28.282Z,6.07
2018-09-03T13:00:56.620Z,5.80
2018-09-03T13:03:24.903Z,5.00
2018-09-03T13:05:53.217Z,7.03
2018-09-03T13:08:21.468Z,7.10
2018-09-03T13:10:49.785Z,6.60
2018-09-03T13:13:18.085Z,5.70
2018-09-03T13:15:46.337Z,5.80
2018-09-03T13:18:14.609Z,6.50
2018-09-03T13:20:42.963Z,5.57
2018-09-03T13:23:11.277Z,5.77
2018-09-03T13:25:40.565Z,6.20
2018-09-03T13:28:08.833Z,6.40
2018-09-03T13:30:37.102Z,5.70
2018-09-03T13:33:05.373Z,6.17
2018-09-03T13:35:33.630Z,5.17
2018-09-03T13:38:02.100Z,6.70
2018-09-03T13:40:30.344Z,5.70
2018-09-03T13:42:58.613Z,6.43
2018-09-03T13:45:26.885Z,5.83
2018-09-03T13:47:55.343Z,5.93
2018-09-03T13:50:23.645Z,6.10
2018-09-03T13:52:51.925Z,6.33
2018-09-03T13:55:20.229Z,5.63
2018-09-03T13:57:48.547Z,6.10
2018-09-03T14:00:16.863Z,6.20
2018-09-03T14:07:35.141Z,6.87
2018-09-03T14:10:03.480Z,5.33
2018-09-03T14:12:31.777Z,5.77
2018-09-03T14:15:00.162Z,5.20
2018-09-03T14:17:29.113Z,6.27
2018-09-03T14:19:58.955Z,6.97
2018-09-03T14:22:27.262Z,5.50
2018-09-03T14:24:55.591Z,7.50
2018-09-03T14:27:24.125Z,5.83
2018-09-03T14:29:52.641Z,6.03
2018-09-03T14:32:21.179Z,5.40
2018-09-03T14:34:49.549Z,5.10
2018-09-03T14:37:17.817Z,6.43
2018-09-03T14:39:46.126Z,5.57
2018-09-03T14:42:14.582Z,5.73
2018-09-03T14:44:42.907Z,5.50
2018-09-03T14:47:11.178Z,5.43
2018-09-03T14:49:39.543Z,5.57
2018-09-03T14:52:07.812Z,5.63
2018-09-03T14:54:36.117Z,5.77
2018-09-03T14:57:04.549Z,6.20
2018-09-03T14:59:32.885Z,5.90
2018-09-03T15:02:01.212Z,4.87
2018-09-03T15:04:30.502Z,4.80
2018-09-03T15:06:58.814Z,5.50
2018-09-03T15:09:27.082Z,5.07
2018-09-03T15:11:55.392Z,5.87
2018-09-03T15:14:23.641Z,5.40
2018-09-03T15:16:51.919Z,5.43
2018-09-03T15:19:20.233Z,5.60
2018-09-03T15:21:48.518Z,5.33
2018-09-03T15:24:17.257Z,5.20
2018-09-03T15:26:45.571Z,5.67
2018-09-03T15:29:13.795Z,5.33
2018-09-03T15:31:42.094Z,6.23
2018-09-03T15:34:10.349Z,4.50
2018-09-03T15:36:38.741Z,5.07
2018-09-03T15:39:10.493Z,4.47
2018-09-03T15:41:38.784Z,5.03
2018-09-03T15:44:07.441Z,5.40
2018-09-03T15:46:35.761Z,4.20
2018-09-03T15:49:04.088Z,5.40
2018-09-03T15:51:32.330Z,4.87
2018-09-03T15:54:00.653Z,4.87
2018-09-03T15:56:29.001Z,5.43
2018-09-03T15:58:57.282Z,4.80
2018-09-03T16:01:25.541Z,4.97
2018-09-03T16:03:53.837Z,4.07
2018-09-03T16:06:22.114Z,4.80
2018-09-03T16:08:50.432Z,5.03
2018-09-03T16:11:18.742Z,4.83
2018-09-03T16:13:47.027Z,4.70
2018-09-03T16:16:15.277Z,4.87
2018-09-03T16:18:43.562Z,4.60
2018-09-03T16:21:11.901Z,5.00
2018-09-03T16:23:40.186Z,5.43
2018-09-03T16:26:08.429Z,4.77
2018-09-03T16:28:36.787Z,6.17
2018-09-03T16:31:05.166Z,5.03
2018-09-03T16:33:33.470Z,5.60
2018-09-03T16:37:05.098Z,4.90
2018-09-03T16:39:33.369Z,4.37
2018-09-03T16:42:01.688Z,4.80
2018-09-03T16:44:29.935Z,4.70
2018-09-03T16:46:58.189Z,5.30
2018-09-03T16:49:26.471Z,4.67
2018-09-03T16:51:54.754Z,4.40
2018-09-03T16:54:23.057Z,5.13
2018-09-03T16:56:51.417Z,4.53
2018-09-03T16:59:19.905Z,5.23
2018-09-03T17:01:48.214Z,6.07
2018-09-03T17:04:16.517Z,4.30
2018-09-03T17:06:44.852Z,5.17
2018-09-03T17:09:13.161Z,4.30
2018-09-03T17:11:41.457Z,5.87
2018-09-03T17:14:09.702Z,4.97
2018-09-03T17:16:38.095Z,5.33
2018-09-03T17:19:06.540Z,6.03
2018-09-03T17:21:34.951Z,4.03
2018-09-03T17:24:03.225Z,5.28
2018-09-03T17:26:31.541Z,5.77
2018-09-03T17:28:59.801Z,5.13
2018-09-03T17:31:28.138Z,5.03
2018-09-03T17:33:56.397Z,5.40
2018-09-03T17:36:24.710Z,5.40
2018-09-03T17:38:52.989Z,5.37
2018-09-03T17:41:21.345Z,5.23
2018-09-03T17:43:49.621Z,5.13
2018-09-03T17:46:17.929Z,5.93
2018-09-03T17:48:46.233Z,4.90
2018-09-03T17:51:14.531Z,5.70
2018-09-03T17:53:42.924Z,4.97
2018-09-03T17:56:11.213Z,5.13
2018-09-03T17:58:39.505Z,5.40
2018-09-03T18:01:07.741Z,5.53
2018-09-03T18:03:36.246Z,6.03
2018-09-03T18:06:04.541Z,5.70
2018-09-03T18:08:32.840Z,5.40
2018-09-03T18:11:01.089Z,6.20
2018-09-03T18:13:29.369Z,5.50
2018-09-03T18:15:57.648Z,5.90
2018-09-03T18:18:25.946Z,5.60
2018-09-03T18:20:54.217Z,5.40
2018-09-03T18:23:22.513Z,5.60
2018-09-03T18:25:50.754Z,6.00
2018-09-03T18:28:19.035Z,5.90
2018-09-03T18:30:47.340Z,5.63
2018-09-03T18:33:15.613Z,5.30
2018-09-03T18:35:43.916Z,6.00
2018-09-03T18:38:12.222Z,5.60
2018-09-03T18:40:40.958Z,6.20
2018-09-03T18:43:09.238Z,5.30
2018-09-03T18:45:37.509Z,6.07
2018-09-03T18:48:05.966Z,5.57
2018-09-03T18:50:34.216Z,6.20
2018-09-03T18:53:02.529Z,5.63
2018-09-03T18:55:30.817Z,5.20
2018-09-03T18:57:59.070Z,5.70
2018-09-03T19:00:28.148Z,5.07
2018-09-03T19:02:56.389Z,5.30
2018-09-03T19:05:24.682Z,5.13
2018-09-03T19:07:52.957Z,6.60
2018-09-03T19:10:21.239Z,5.93
2018-09-03T19:12:49.497Z,5.77
2018-09-03T19:15:17.773Z,6.47
2018-09-03T19:17:46.046Z,5.83
2018-09-03T19:20:14.379Z,5.57
2018-09-03T19:22:42.633Z,5.43
2018-09-03T19:25:10.937Z,6.07
2018-09-03T19:27:39.264Z,6.13
2018-09-03T19:30:07.741Z,5.97
2018-09-03T19:32:35.988Z,5.83
2018-09-03T19:35:04.376Z,6.23
2018-09-03T19:37:32.645Z,6.33
2018-09-03T19:40:00.962Z,6.17
2018-09-03T19:42:29.241Z,5.80
2018-09-03T19:44:57.514Z,5.33
2018-09-03T19:47:25.797Z,6.33
2018-09-03T19:49:54.170Z,6.33
2018-09-03T19:52:22.468Z,6.67
2018-09-03T19:54:50.709Z,6.20
2018-09-03T19:57:19.300Z,7.70
2018-09-03T19:59:47.865Z,6.03
2018-09-03T20:02:16.141Z,6.17
2018-09-03T20:04:46.497Z,5.70
2018-09-03T20:07:14.786Z,7.00
2018-09-03T20:09:43.045Z,7.58
2018-09-03T20:12:11.398Z,7.23
2018-09-03T20:14:39.694Z,6.20
2018-09-03T20:17:07.998Z,7.00
2018-09-03T20:19:36.276Z,7.00
2018-09-03T20:22:04.593Z,6.83
2018-09-03T20:24:33.985Z,6.40
2018-09-03T20:27:02.259Z,6.97
2018-09-03T20:29:30.505Z,6.73
2018-09-03T20:31:58.789Z,7.33
2018-09-03T20:34:27.062Z,8.13
2018-09-03T20:36:55.356Z,7.40
2018-09-03T20:39:23.601Z,6.80
2018-09-03T20:41:51.961Z,7.70
2018-09-03T20:44:20.325Z,7.13
2018-09-03T20:46:48.615Z,7.43
2018-09-03T20:49:17.469Z,7.53
2018-09-03T20:51:46.158Z,7.03
2018-09-03T20:54:14.437Z,8.07
2018-09-03T20:56:42.706Z,7.70
2018-09-03T20:59:10.993Z,6.00
2018-09-03T21:01:39.419Z,7.57
2018-09-03T21:04:07.743Z,7.50
2018-09-03T21:06:38.030Z,7.43
2018-09-03T21:09:07.962Z,7.77
2018-09-03T21:11:36.291Z,7.87
2018-09-03T21:14:13.332Z,8.55
2018-09-03T21:16:41.636Z,7.23
2018-09-03T21:19:10.410Z,7.33
2018-09-03T21:21:39.025Z,7.63
2018-09-03T21:24:08.396Z,8.27
2018-09-03T21:26:36.733Z,8.03
2018-09-03T21:29:05.330Z,9.00
2018-09-03T21:31:33.613Z,8.80
2018-09-03T21:34:02.075Z,8.23
2018-09-03T21:36:30.357Z,7.73
2018-09-03T21:38:59.374Z,7.97
2018-09-03T21:41:28.069Z,7.20
2018-09-03T21:43:56.744Z,7.60
2018-09-03T21:46:25.215Z,7.70
2018-09-03T21:48:53.617Z,7.57
2018-09-03T21:51:22.569Z,7.80
2018-09-03T21:53:50.875Z,8.70
2018-09-03T21:56:19.169Z,8.30
2018-09-03T21:58:47.438Z,7.50
2018-09-03T22:01:15.772Z,8.83
2018-09-03T22:03:44.084Z,7.83
2018-09-03T22:06:12.432Z,8.17
2018-09-03T22:08:40.768Z,8.30
2018-09-03T22:11:09.183Z,8.33
2018-09-03T22:13:37.516Z,8.33
2018-09-03T22:16:07.997Z,9.00
2018-09-03T22:18:37.425Z,9.90
2018-09-03T22:21:05.988Z,9.47
2018-09-03T22:23:34.414Z,8.57
2018-09-03T22:26:02.689Z,9.03
2018-09-03T22:28:32.024Z,10.40
2018-09-03T22:31:00.302Z,8.77
2018-09-03T22:33:28.588Z,8.60
2018-09-03T22:35:57.053Z,9.10
2018-09-03T22:38:25.929Z,8.67
2018-09-03T22:40:54.212Z,9.90
2018-09-03T22:43:23.543Z,8.23
2018-09-03T22:45:51.867Z,9.07
2018-09-03T22:48:20.356Z,10.00
2018-09-03T22:50:48.665Z,8.70
2018-09-03T22:53:16.987Z,9.43
2018-09-03T22:55:45.667Z,10.30
2018-09-03T22:58:13.973Z,10.10
2018-09-03T23:00:42.264Z,10.90
2018-09-03T23:03:10.647Z,10.47
2018-09-03T23:05:38.944Z,9.80
2018-09-03T23:08:07.229Z,10.20
2018-09-03T23:10:35.516Z,9.03
2018-09-03T23:13:03.957Z,9.93
2018-09-03T23:15:33.364Z,10.23
2018-09-03T23:18:01.741Z,9.90
2018-09-03T23:20:31.122Z,9.57
2018-09-03T23:22:59.493Z,8.87
2018-09-03T23:25:27.822Z,9.60
2018-09-03T23:27:56.109Z,9.97
2018-09-03T23:30:24.410Z,9.90
2018-09-03T23:32:52.688Z,9.50
2018-09-03T23:35:21.102Z,9.13
2018-09-03T23:37:49.386Z,8.27
2018-09-03T23:40:17.685Z,9.80
2018-09-03T23:42:46.013Z,9.07
2018-09-03T23:45:14.337Z,8.80
2018-09-03T23:47:42.629Z,9.07
2018-09-03T23:50:10.983Z,8.83
2018-09-03T23:52:39.246Z,8.47
2018-09-03T23:55:07.556Z,9.07
2018-09-03T23:57:35.829Z,8.90
